createdAt,value
2017-10-13T00:01:50.032Z,3.20
2017-10-13T00:04:18.502Z,2.83
2017-10-13T00:06:46.999Z,2.40
2017-10-13T00:09:15.465Z,2.40
2017-10-13T00:11:43.959Z,2.30
2017-10-13T00:14:12.449Z,2.70
2017-10-13T00:16:40.947Z,2.30
2017-10-13T00:19:09.513Z,3.50
2017-10-13T00:21:37.991Z,3.87
2017-10-13T00:24:06.482Z,3.37
2017-10-13T00:26:34.955Z,2.87
2017-10-13T00:29:03.536Z,3.03
2017-10-13T00:31:32.010Z,2.40
2017-10-13T00:34:00.505Z,2.10
2017-10-13T00:36:28.980Z,2.53
2017-10-13T00:38:57.569Z,2.87
2017-10-13T00:41:26.127Z,2.47
2017-10-13T00:43:54.621Z,3.80
2017-10-13T00:46:23.100Z,2.73
2017-10-13T00:48:51.594Z,3.03
2017-10-13T00:51:20.067Z,4.50
2017-10-13T00:53:48.558Z,2.33
2017-10-13T00:56:17.044Z,4.00
2017-10-13T00:58:45.514Z,2.20
2017-10-13T01:01:14.010Z,2.37
2017-10-13T01:03:42.493Z,2.77
2017-10-13T01:06:10.986Z,3.20
2017-10-13T01:08:39.450Z,2.70
2017-10-13T01:11:07.933Z,2.13
2017-10-13T01:13:36.405Z,3.10
2017-10-13T01:16:04.994Z,2.93
2017-10-13T01:18:33.494Z,2.87
2017-10-13T01:21:02.078Z,2.83
2017-10-13T01:23:30.541Z,2.80
2017-10-13T01:25:59.145Z,2.50
2017-10-13T01:28:27.632Z,2.80
2017-10-13T01:30:56.922Z,2.83
2017-10-13T01:33:25.395Z,3.27
2017-10-13T01:35:54.004Z,2.93
2017-10-13T01:38:22.463Z,2.73
2017-10-13T01:40:50.930Z,3.13
2017-10-13T01:43:19.432Z,2.93
2017-10-13T01:45:47.895Z,2.47
2017-10-13T01:48:16.385Z,1.50
2017-10-13T01:50:44.881Z,2.50
2017-10-13T01:53:13.465Z,2.67
2017-10-13T01:55:41.924Z,2.47
2017-10-13T01:58:10.403Z,3.40
2017-10-13T02:00:38.865Z,2.83
2017-10-13T02:03:07.353Z,2.30
2017-10-13T02:05:35.817Z,2.90
2017-10-13T02:08:05.182Z,2.50
2017-10-13T02:10:33.761Z,1.53
2017-10-13T02:13:02.260Z,2.40
2017-10-13T02:15:30.730Z,2.40
2017-10-13T02:17:59.309Z,3.60
2017-10-13T02:20:27.802Z,2.50
2017-10-13T02:22:56.265Z,2.37
2017-10-13T02:25:24.870Z,2.40
2017-10-13T02:27:53.454Z,2.73
2017-10-13T02:30:22.039Z,1.70
2017-10-13T02:32:50.510Z,2.83
2017-10-13T02:35:18.989Z,2.20
2017-10-13T02:37:47.462Z,2.07
2017-10-13T02:40:16.057Z,2.57
2017-10-13T02:42:44.546Z,3.47
2017-10-13T02:45:13.125Z,3.00
2017-10-13T02:47:41.599Z,3.20
2017-10-13T02:50:10.190Z,2.17
2017-10-13T02:52:38.681Z,2.67
2017-10-13T02:55:07.173Z,2.53
2017-10-13T02:57:35.642Z,2.57
2017-10-13T03:00:04.142Z,3.73
2017-10-13T03:02:32.622Z,3.00
2017-10-13T03:05:01.185Z,2.40
2017-10-13T03:07:29.746Z,2.77
2017-10-13T03:09:58.222Z,3.60
2017-10-13T03:12:26.709Z,3.00
2017-10-13T03:14:55.185Z,2.80
2017-10-13T03:17:23.674Z,2.70
2017-10-13T03:19:52.181Z,4.17
2017-10-13T03:22:20.758Z,2.67
2017-10-13T03:24:49.250Z,2.83
2017-10-13T03:27:17.733Z,2.50
2017-10-13T03:29:46.206Z,3.23
2017-10-13T03:32:14.696Z,3.53
2017-10-13T03:34:43.161Z,3.03
2017-10-13T03:37:11.659Z,2.60
2017-10-13T03:39:40.140Z,2.50
2017-10-13T03:42:08.722Z,2.40
2017-10-13T03:44:37.210Z,2.93
2017-10-13T03:47:05.714Z,2.50
2017-10-13T03:49:34.181Z,3.20
2017-10-13T03:52:02.677Z,3.97
2017-10-13T03:54:31.240Z,2.80
2017-10-13T03:56:59.724Z,2.17
2017-10-13T03:59:28.309Z,2.80
2017-10-13T04:01:56.775Z,2.70
2017-10-13T04:04:25.266Z,2.27
2017-10-13T04:06:53.749Z,2.63
2017-10-13T04:09:22.242Z,3.00
2017-10-13T04:11:50.713Z,2.53
2017-10-13T04:14:19.201Z,3.10
2017-10-13T04:16:47.675Z,3.07
2017-10-13T04:19:16.176Z,2.50
2017-10-13T04:21:44.644Z,3.60
2017-10-13T04:24:13.226Z,2.60
2017-10-13T04:26:41.715Z,3.03
2017-10-13T04:29:10.201Z,3.20
2017-10-13T04:31:38.669Z,2.43
2017-10-13T04:34:07.162Z,1.90
2017-10-13T04:36:35.636Z,2.93
2017-10-13T04:39:04.100Z,2.40
2017-10-13T04:41:32.585Z,2.70
2017-10-13T04:44:01.053Z,3.17
2017-10-13T04:46:29.746Z,2.50
2017-10-13T04:48:58.218Z,2.97
2017-10-13T04:51:26.710Z,3.30
2017-10-13T04:53:55.186Z,3.03
2017-10-13T04:56:23.697Z,2.40
2017-10-13T04:58:52.186Z,3.20
2017-10-13T05:01:20.716Z,2.37
2017-10-13T05:03:49.183Z,2.23
2017-10-13T05:06:18.412Z,2.50
2017-10-13T05:08:46.914Z,2.57
2017-10-13T05:11:15.374Z,2.37
2017-10-13T05:13:43.829Z,2.80
2017-10-13T05:16:13.174Z,3.13
2017-10-13T05:18:41.619Z,2.47
2017-10-13T05:21:10.921Z,2.70
2017-10-13T05:23:40.155Z,2.97
2017-10-13T05:26:09.217Z,2.90
2017-10-13T05:28:38.450Z,1.97
2017-10-13T05:31:06.921Z,2.93
2017-10-13T05:33:35.407Z,3.63
2017-10-13T05:36:03.898Z,2.43
2017-10-13T05:38:32.366Z,2.70
2017-10-13T05:41:00.838Z,2.80
2017-10-13T05:43:29.302Z,3.73
2017-10-13T05:45:58.505Z,8.87
2017-10-13T05:48:27.840Z,11.40
2017-10-13T05:50:56.287Z,15.10
2017-10-13T05:53:25.513Z,15.67
2017-10-13T05:55:53.957Z,18.07
2017-10-13T05:58:23.189Z,19.77
2017-10-13T06:00:51.679Z,21.33
2017-10-13T06:03:20.142Z,21.27
2017-10-13T06:05:48.655Z,23.23
2017-10-13T06:08:17.125Z,26.90
2017-10-13T06:10:45.570Z,23.23
2017-10-13T06:13:14.811Z,20.07
2017-10-13T06:15:43.290Z,18.10
2017-10-13T06:18:11.733Z,17.93
2017-10-13T06:20:40.961Z,20.20
2017-10-13T06:23:09.405Z,20.57
2017-10-13T06:25:38.648Z,15.53
2017-10-13T06:28:07.128Z,11.40
2017-10-13T06:30:35.589Z,7.87
2017-10-13T06:33:04.795Z,5.17
2017-10-13T06:35:33.263Z,3.90
2017-10-13T06:38:02.476Z,2.97
2017-10-13T06:40:30.947Z,4.17
2017-10-13T06:43:00.180Z,3.27
2017-10-13T06:45:28.646Z,3.17
2017-10-13T06:47:57.101Z,3.83
2017-10-13T06:50:26.446Z,3.67
2017-10-13T06:52:54.931Z,3.80
2017-10-13T06:55:23.406Z,2.97
2017-10-13T06:57:51.845Z,4.00
2017-10-13T07:00:21.078Z,3.97
2017-10-13T07:02:49.568Z,3.40
2017-10-13T07:05:18.005Z,4.20
2017-10-13T07:07:47.247Z,5.30
2017-10-13T07:10:15.737Z,7.63
2017-10-13T07:12:44.293Z,8.50
2017-10-13T07:15:12.793Z,6.97
2017-10-13T07:17:41.287Z,5.33
2017-10-13T07:20:09.725Z,5.53
2017-10-13T07:22:38.950Z,3.73
2017-10-13T07:25:07.393Z,3.40
2017-10-13T07:27:35.922Z,3.30
2017-10-13T07:30:04.367Z,2.97
2017-10-13T07:32:33.592Z,2.90
2017-10-13T07:35:02.029Z,2.97
2017-10-13T07:37:30.569Z,2.93
2017-10-13T07:39:58.997Z,3.00
2017-10-13T07:42:27.438Z,3.07
2017-10-13T07:44:55.902Z,3.63
2017-10-13T07:47:24.392Z,3.87
2017-10-13T07:49:52.848Z,3.70
2017-10-13T07:52:22.074Z,2.60
2017-10-13T07:54:50.557Z,3.33
2017-10-13T07:57:18.989Z,2.13
2017-10-13T07:59:47.454Z,3.70
2017-10-13T08:02:15.892Z,2.80
2017-10-13T08:04:44.349Z,3.17
2017-10-13T08:07:13.583Z,3.10
2017-10-13T08:09:42.050Z,3.20
2017-10-13T08:12:10.489Z,4.73
2017-10-13T08:14:38.958Z,3.23
2017-10-13T08:17:07.402Z,3.60
2017-10-13T08:19:35.841Z,4.00
2017-10-13T08:22:05.088Z,3.47
2017-10-13T08:24:33.524Z,3.00
2017-10-13T08:27:02.841Z,3.73
2017-10-13T08:29:32.070Z,3.17
2017-10-13T08:32:00.533Z,3.67
2017-10-13T08:34:29.039Z,2.70
2017-10-13T08:36:57.627Z,3.00
2017-10-13T08:39:26.070Z,2.60
2017-10-13T08:41:55.299Z,3.20
2017-10-13T08:44:23.787Z,3.83
2017-10-13T08:46:52.278Z,3.10
2017-10-13T08:49:20.745Z,3.40
2017-10-13T08:51:49.222Z,4.40
2017-10-13T08:54:17.665Z,2.80
2017-10-13T08:56:46.898Z,4.60
2017-10-13T08:59:15.354Z,3.30
2017-10-13T09:01:44.581Z,4.47
2017-10-13T09:04:13.077Z,3.20
2017-10-13T09:06:41.517Z,5.17
2017-10-13T09:09:10.742Z,2.27
2017-10-13T09:11:39.185Z,2.60
2017-10-13T09:14:08.410Z,3.43
2017-10-13T09:16:36.850Z,3.53
2017-10-13T09:19:05.312Z,2.60
2017-10-13T09:21:33.749Z,3.10
2017-10-13T09:24:02.981Z,3.53
2017-10-13T09:26:31.430Z,3.00
2017-10-13T09:29:00.659Z,3.00
2017-10-13T09:31:29.094Z,2.13
2017-10-13T09:33:58.333Z,2.37
2017-10-13T09:36:26.769Z,3.57
2017-10-13T09:38:55.297Z,2.90
2017-10-13T09:41:23.747Z,2.97
2017-10-13T09:43:52.981Z,2.37
2017-10-13T09:46:21.417Z,3.17
2017-10-13T09:48:50.630Z,3.33
2017-10-13T09:51:19.097Z,4.03
2017-10-13T09:53:48.342Z,3.17
2017-10-13T09:56:16.927Z,2.80
2017-10-13T09:58:45.369Z,2.43
2017-10-13T10:01:14.710Z,2.70
2017-10-13T10:03:43.153Z,5.43
2017-10-13T10:06:12.494Z,2.77
2017-10-13T10:08:40.983Z,2.37
2017-10-13T10:11:10.285Z,3.43
2017-10-13T10:13:38.721Z,3.27
2017-10-13T10:16:08.169Z,2.97
2017-10-13T10:18:36.609Z,2.90
2017-10-13T10:21:05.941Z,2.00
2017-10-13T10:23:34.377Z,2.50
2017-10-13T10:26:03.626Z,2.37
2017-10-13T10:28:32.064Z,5.50
2017-10-13T10:31:01.293Z,2.70
2017-10-13T10:33:29.730Z,3.27
2017-10-13T10:35:58.934Z,2.47
2017-10-13T10:38:27.379Z,3.40
2017-10-13T10:40:56.173Z,2.13
2017-10-13T10:43:24.634Z,2.60
2017-10-13T10:45:53.075Z,2.10
2017-10-13T10:48:22.311Z,3.33
2017-10-13T10:50:50.804Z,3.17
2017-10-13T10:53:19.387Z,2.83
2017-10-13T10:55:47.833Z,2.93
2017-10-13T10:58:17.169Z,2.83
2017-10-13T11:00:45.618Z,2.17
2017-10-13T11:03:14.854Z,3.00
2017-10-13T11:05:43.293Z,2.50
2017-10-13T11:08:12.497Z,2.80
2017-10-13T11:10:41.730Z,2.37
2017-10-13T11:13:10.181Z,2.50
2017-10-13T11:15:39.522Z,1.93
2017-10-13T11:18:07.967Z,2.70
2017-10-13T11:20:37.178Z,2.50
2017-10-13T11:23:05.613Z,2.67
2017-10-13T11:25:34.081Z,3.20
2017-10-13T11:28:02.517Z,2.67
2017-10-13T11:30:30.977Z,2.57
2017-10-13T11:33:01.200Z,2.60
2017-10-13T11:35:30.427Z,2.23
2017-10-13T11:37:58.865Z,2.47
2017-10-13T11:40:28.123Z,1.80
2017-10-13T11:42:56.568Z,2.97
2017-10-13T11:45:25.906Z,3.70
2017-10-13T11:47:54.337Z,2.37
2017-10-13T11:50:22.806Z,2.30
2017-10-13T11:52:51.348Z,3.27
2017-10-13T11:55:19.840Z,4.53
2017-10-13T11:57:48.297Z,2.07
2017-10-13T12:00:16.741Z,3.57
2017-10-13T12:02:45.197Z,2.43
2017-10-13T12:05:13.632Z,2.63
2017-10-13T12:07:42.967Z,2.80
2017-10-13T12:10:11.414Z,3.43
2017-10-13T12:12:40.794Z,2.80
2017-10-13T12:15:09.240Z,2.60
2017-10-13T12:17:37.818Z,5.10
2017-10-13T12:20:06.261Z,3.40
2017-10-13T12:22:35.465Z,3.30
2017-10-13T12:25:04.698Z,3.87
2017-10-13T12:27:33.137Z,3.37
2017-10-13T12:30:02.474Z,2.13
2017-10-13T12:32:30.913Z,3.00
2017-10-13T12:35:00.301Z,3.10
2017-10-13T12:37:28.743Z,2.47
2017-10-13T12:39:57.323Z,3.50
2017-10-13T12:42:27.350Z,2.83
2017-10-13T12:44:55.829Z,3.30
2017-10-13T12:47:24.312Z,3.00
2017-10-13T12:49:52.846Z,2.60
2017-10-13T12:52:22.073Z,2.53
2017-10-13T12:54:50.513Z,3.90
2017-10-13T12:57:19.048Z,3.10
2017-10-13T12:59:47.488Z,5.50
2017-10-13T13:02:16.740Z,3.57
2017-10-13T13:04:45.186Z,3.77
2017-10-13T13:07:14.423Z,4.23
2017-10-13T13:09:42.898Z,3.83
2017-10-13T13:12:11.379Z,3.83
2017-10-13T13:14:39.862Z,3.03
2017-10-13T13:17:08.492Z,3.43
2017-10-13T13:19:36.961Z,4.87
2017-10-13T13:22:05.401Z,3.50
2017-10-13T13:24:33.902Z,4.10
2017-10-13T13:27:02.381Z,3.30
2017-10-13T13:29:30.842Z,3.93
2017-10-13T13:31:59.290Z,4.30
2017-10-13T13:34:28.525Z,3.90
2017-10-13T13:36:56.962Z,4.47
2017-10-13T13:39:25.425Z,4.90
2017-10-13T13:41:53.881Z,3.30
2017-10-13T13:44:22.345Z,4.53
2017-10-13T13:46:50.785Z,3.60
2017-10-13T13:49:19.249Z,3.50
2017-10-13T13:51:47.814Z,3.20
2017-10-13T13:54:16.265Z,4.00
2017-10-13T13:56:44.738Z,3.67
2017-10-13T13:59:13.945Z,3.60
2017-10-13T14:01:43.170Z,4.57
2017-10-13T14:04:11.636Z,4.13
2017-10-13T14:06:40.101Z,4.50
2017-10-13T14:09:09.305Z,3.47
2017-10-13T14:11:38.537Z,3.90
2017-10-13T14:14:06.982Z,4.20
2017-10-13T14:16:36.213Z,5.30
2017-10-13T14:19:04.657Z,4.80
2017-10-13T14:21:33.993Z,6.03
2017-10-13T14:24:02.457Z,5.87
2017-10-13T14:26:30.901Z,4.97
2017-10-13T14:28:59.361Z,4.50
2017-10-13T14:31:27.797Z,4.23
2017-10-13T14:33:57.017Z,3.40
2017-10-13T14:36:25.457Z,4.80
2017-10-13T14:38:54.688Z,4.00
2017-10-13T14:41:23.134Z,4.20
2017-10-13T14:43:51.573Z,3.63
2017-10-13T14:46:20.031Z,4.93
2017-10-13T14:48:48.527Z,4.97
2017-10-13T14:51:16.999Z,3.70
2017-10-13T14:53:45.432Z,4.80
2017-10-13T14:56:13.893Z,5.70
2017-10-13T14:58:42.328Z,5.13
2017-10-13T15:01:10.794Z,4.00
2017-10-13T15:03:40.005Z,5.00
2017-10-13T15:06:08.478Z,4.83
2017-10-13T15:08:37.714Z,5.03
2017-10-13T15:11:06.184Z,4.67
2017-10-13T15:13:34.679Z,5.10
2017-10-13T15:16:03.167Z,4.70
2017-10-13T15:18:31.616Z,4.27
2017-10-13T15:21:00.057Z,5.10
2017-10-13T15:23:28.526Z,5.23
2017-10-13T15:25:56.985Z,4.80
2017-10-13T15:28:30.957Z,5.07
2017-10-13T15:31:01.845Z,5.83
2017-10-13T15:33:35.725Z,5.53
2017-10-13T15:36:09.826Z,3.57
2017-10-13T15:41:45.717Z,4.80
2017-10-13T15:44:19.440Z,6.00
2017-10-13T15:46:53.558Z,5.23
2017-10-13T15:49:27.606Z,5.97
2017-10-13T15:52:01.673Z,6.77
2017-10-13T15:54:30.167Z,4.80
2017-10-13T15:56:58.606Z,5.70
2017-10-13T15:59:27.942Z,6.03
2017-10-13T16:01:56.389Z,5.20
2017-10-13T16:04:25.613Z,5.67
2017-10-13T16:06:54.049Z,5.70
2017-10-13T16:09:22.516Z,6.30
2017-10-13T16:11:50.952Z,5.20
2017-10-13T16:14:19.413Z,6.60
2017-10-13T16:16:48.654Z,8.30
2017-10-13T16:19:17.113Z,6.70
2017-10-13T16:21:45.550Z,6.60
2017-10-13T16:24:14.009Z,7.23
2017-10-13T16:26:42.445Z,7.20
2017-10-13T16:29:11.687Z,6.70
2017-10-13T16:31:40.138Z,5.33
2017-10-13T16:34:08.601Z,5.37
2017-10-13T16:36:37.837Z,5.00
2017-10-13T16:39:06.323Z,5.33
2017-10-13T16:41:34.802Z,6.63
2017-10-13T16:44:04.109Z,5.70
2017-10-13T16:46:32.576Z,5.57
2017-10-13T16:49:01.020Z,6.53
2017-10-13T16:51:30.249Z,6.97
2017-10-13T16:53:58.689Z,7.47
2017-10-13T16:56:27.163Z,6.50
2017-10-13T16:58:55.600Z,7.67
2017-10-13T17:01:24.097Z,13.70
2017-10-13T17:03:52.541Z,7.53
2017-10-13T17:06:21.874Z,7.93
2017-10-13T17:08:50.319Z,7.43
2017-10-13T17:11:19.662Z,8.33
2017-10-13T17:13:48.110Z,7.07
2017-10-13T17:16:17.361Z,14.23
2017-10-13T17:18:45.806Z,10.13
2017-10-13T17:21:14.307Z,10.43
2017-10-13T17:23:42.769Z,10.80
2017-10-13T17:26:11.262Z,10.47
2017-10-13T17:28:39.748Z,6.87
2017-10-13T17:31:08.229Z,7.50
2017-10-13T17:33:36.718Z,5.97
2017-10-13T17:36:05.158Z,6.53
2017-10-13T17:38:34.386Z,6.20
2017-10-13T17:41:02.875Z,7.67
2017-10-13T17:43:31.734Z,7.03
2017-10-13T17:46:00.942Z,7.80
2017-10-13T17:48:29.423Z,7.90
2017-10-13T17:50:57.873Z,7.63
2017-10-13T17:53:26.411Z,8.03
2017-10-13T17:55:54.857Z,8.80
2017-10-13T17:58:24.194Z,7.93
2017-10-13T18:00:52.646Z,8.20
2017-10-13T18:03:21.849Z,8.00
2017-10-13T18:05:51.079Z,9.30
2017-10-13T18:08:19.513Z,9.10
2017-10-13T18:10:48.853Z,7.10
2017-10-13T18:13:17.300Z,7.67
2017-10-13T18:15:46.636Z,7.33
2017-10-13T18:18:15.078Z,6.50
2017-10-13T18:20:44.314Z,6.10
2017-10-13T18:23:12.774Z,6.27
2017-10-13T18:25:42.004Z,7.37
2017-10-13T18:28:10.455Z,8.60
2017-10-13T18:30:39.688Z,6.23
2017-10-13T18:33:08.129Z,6.90
2017-10-13T18:35:37.352Z,8.07
2017-10-13T18:38:05.793Z,6.93
2017-10-13T18:40:34.262Z,7.30
2017-10-13T18:43:02.706Z,8.30
2017-10-13T18:45:31.141Z,7.20
2017-10-13T18:47:59.676Z,7.13
2017-10-13T18:50:28.122Z,7.20
2017-10-13T18:52:57.454Z,7.83
2017-10-13T18:55:25.889Z,7.27
2017-10-13T18:57:54.354Z,7.23
2017-10-13T19:00:22.919Z,10.50
2017-10-13T19:02:51.436Z,7.73
2017-10-13T19:05:19.873Z,7.63
2017-10-13T19:07:48.445Z,7.43
2017-10-13T19:10:16.931Z,8.10
2017-10-13T19:12:45.409Z,7.10
2017-10-13T19:15:13.849Z,7.67
2017-10-13T19:17:43.094Z,8.37
2017-10-13T19:20:11.540Z,17.70
2017-10-13T19:22:40.775Z,8.60
2017-10-13T19:25:09.216Z,10.80
2017-10-13T19:27:38.462Z,10.43
2017-10-13T19:30:07.046Z,11.97
2017-10-13T19:32:35.654Z,11.33
2017-10-13T19:35:04.089Z,9.00
2017-10-13T19:37:32.553Z,9.97
2017-10-13T19:40:01.781Z,10.00
2017-10-13T19:42:30.265Z,10.03
2017-10-13T19:44:58.725Z,11.87
2017-10-13T19:47:27.933Z,11.53
2017-10-13T19:49:56.434Z,11.10
2017-10-13T19:52:24.909Z,10.00
2017-10-13T19:54:53.402Z,10.00
2017-10-13T19:57:21.878Z,9.30
2017-10-13T19:59:50.357Z,9.83
2017-10-13T20:02:18.804Z,9.60
2017-10-13T20:04:48.037Z,10.03
2017-10-13T20:07:16.480Z,9.30
2017-10-13T20:09:45.709Z,10.20
2017-10-13T20:12:14.154Z,10.13
2017-10-13T20:14:42.687Z,9.40
2017-10-13T20:17:11.865Z,9.80
2017-10-13T20:19:40.321Z,9.80
2017-10-13T20:22:09.538Z,9.33
2017-10-13T20:24:38.011Z,9.63
2017-10-13T20:27:07.229Z,8.37
2017-10-13T20:29:35.693Z,8.83
2017-10-13T20:32:04.894Z,8.07
2017-10-13T20:34:34.101Z,9.33
2017-10-13T20:37:03.338Z,10.90
2017-10-13T20:39:31.773Z,8.80
2017-10-13T20:42:01.008Z,8.63
2017-10-13T20:44:29.449Z,8.80
2017-10-13T20:46:58.769Z,7.63
2017-10-13T20:49:27.272Z,8.50
2017-10-13T20:51:55.742Z,7.30
2017-10-13T20:54:24.181Z,9.23
2017-10-13T20:56:53.507Z,7.90
2017-10-13T20:59:22.709Z,8.90
2017-10-13T21:01:51.934Z,8.00
2017-10-13T21:04:20.369Z,9.17
2017-10-13T21:06:49.616Z,8.80
2017-10-13T21:09:18.106Z,9.10
2017-10-13T21:11:46.580Z,8.83
2017-10-13T21:14:15.035Z,8.70
2017-10-13T21:16:43.551Z,8.37
2017-10-13T21:19:12.025Z,8.93
2017-10-13T21:21:40.475Z,9.90
2017-10-13T21:24:09.691Z,8.27
2017-10-13T21:26:38.138Z,7.63
2017-10-13T21:29:06.607Z,7.20
2017-10-13T21:31:35.051Z,7.50
2017-10-13T21:34:03.513Z,6.97
2017-10-13T21:36:32.019Z,7.27
2017-10-13T21:39:00.604Z,8.43
2017-10-13T21:41:29.050Z,7.53
2017-10-13T21:43:58.285Z,9.20
2017-10-13T21:46:26.767Z,6.70
2017-10-13T21:48:55.244Z,6.73
2017-10-13T21:51:23.688Z,7.77
2017-10-13T21:53:52.924Z,6.60
2017-10-13T21:56:21.381Z,9.73
2017-10-13T21:58:50.605Z,7.03
2017-10-13T22:01:19.041Z,7.90
2017-10-13T22:03:48.386Z,7.40
2017-10-13T22:06:16.878Z,7.83
2017-10-13T22:08:45.441Z,7.27
2017-10-13T22:11:13.939Z,7.33
2017-10-13T22:13:42.385Z,8.50
2017-10-13T22:16:11.614Z,6.87
2017-10-13T22:18:40.049Z,7.70
2017-10-13T22:21:08.582Z,8.33
2017-10-13T22:23:37.067Z,11.50
2017-10-13T22:26:05.558Z,8.97
2017-10-13T22:28:33.998Z,8.67
2017-10-13T22:31:03.227Z,9.60
2017-10-13T22:33:31.678Z,8.90
2017-10-13T22:36:01.011Z,7.90
2017-10-13T22:38:29.494Z,9.13
2017-10-13T22:40:57.965Z,9.80
2017-10-13T22:43:26.421Z,9.83
2017-10-13T22:45:55.620Z,8.40
2017-10-13T22:48:24.851Z,8.10
2017-10-13T22:50:53.334Z,8.90
2017-10-13T22:53:21.806Z,9.57
2017-10-13T22:55:50.240Z,7.93
2017-10-13T22:58:18.701Z,8.37
2017-10-13T23:00:47.141Z,8.73
2017-10-13T23:03:15.617Z,8.60
2017-10-13T23:05:44.827Z,8.97
2017-10-13T23:08:13.310Z,9.70
2017-10-13T23:10:41.745Z,8.30
2017-10-13T23:13:10.210Z,9.77
2017-10-13T23:15:38.650Z,8.43
2017-10-13T23:18:07.113Z,9.67
2017-10-13T23:20:36.354Z,9.50
2017-10-13T23:23:04.810Z,9.80
2017-10-13T23:25:33.259Z,11.13
2017-10-13T23:28:01.802Z,8.80
2017-10-13T23:30:31.003Z,9.43
2017-10-13T23:32:59.451Z,9.53
2017-10-13T23:35:27.913Z,9.50
2017-10-13T23:37:57.130Z,10.30
2017-10-13T23:40:26.463Z,11.03
2017-10-13T23:42:54.924Z,10.90
2017-10-13T23:45:23.422Z,9.97
2017-10-13T23:47:51.893Z,10.80
2017-10-13T23:50:20.550Z,10.00
2017-10-13T23:52:49.765Z,11.00
2017-10-13T23:55:18.227Z,9.30
2017-10-13T23:57:47.437Z,9.67
